Time;durP1;ratioP1;P1;durP2;ratioP2;P2;SDS_P1;SDS_P2;PMS_P1;PMS_P2;Temp;Humidity;BMP_temperature;BMP_pressure;BME280_temperature;BME280_humidity;BME280_pressure;Samples;Min_cycle;Max_cycle;Signal;HPM_P1;HPM_P2
2022/01/20 00:00:52;;;;;;;204.85;86.57;;;;;;;;;;5075956;28;20031;-64
2022/01/20 00:03:23;;;;;;;192.73;86.65;;;;;;;;;;5057884;28;20498;-64
2022/01/20 00:27:56;;;;;;;242.10;98.13;;;;;;;;;;5075218;28;20091;-64
2022/01/20 00:30:40;;;;;;;230.85;94.90;;;;;;;;;;5075066;28;20390;-63
2022/01/20 00:38:24;;;;;;;192.38;80.07;;;;;;;;;;5075234;28;20037;-64
2022/01/20 00:40:51;;;;;;;178.57;76.28;;;;;;;;;;5075180;28;20024;-64
2022/01/20 00:43:18;;;;;;;164.65;74.63;;;;;;;;;;5075260;28;20029;-64
2022/01/20 00:45:46;;;;;;;169.80;70.70;;;;;;;;;;5074921;28;20028;-65
2022/01/20 00:48:12;;;;;;;159.68;68.47;;;;;;;;;;5074998;28;20021;-64
2022/01/20 00:50:38;;;;;;;147.73;62.92;;;;;;;;;;5074926;28;20094;-63
2022/01/20 00:53:05;;;;;;;155.80;63.70;;;;;;;;;;5056805;28;20159;-65
2022/01/20 00:55:31;;;;;;;145.35;62.22;;;;;;;;;;5074607;28;20025;-65
2022/01/20 00:57:58;;;;;;;150.00;64.80;;;;;;;;;;5075107;28;20469;-65
2022/01/20 01:00:24;;;;;;;164.70;69.30;;;;;;;;;;5074762;28;20020;-65
2022/01/20 01:02:50;;;;;;;181.48;77.93;;;;;;;;;;5074376;28;20057;-64
2022/01/20 01:05:17;;;;;;;186.07;79.75;;;;;;;;;;5056757;28;20222;-64
2022/01/20 01:07:53;;;;;;;201.27;81.90;;;;;;;;;;5074626;28;20037;-65
2022/01/20 01:10:20;;;;;;;233.60;88.32;;;;;;;;;;5074372;28;20515;-64
2022/01/20 01:12:55;;;;;;;237.43;90.03;;;;;;;;;;5074520;28;20021;-64
2022/01/20 01:15:31;;;;;;;186.15;79.22;;;;;;;;;;5074525;28;20024;-64
2022/01/20 01:21:11;;;;;;;170.85;73.38;;;;;;;;;;5074176;28;20094;-63
2022/01/20 01:23:36;;;;;;;166.07;74.35;;;;;;;;;;5073762;28;20048;-63
2022/01/20 01:26:03;;;;;;;173.43;75.68;;;;;;;;;;5074316;28;20083;-64
2022/01/20 01:28:30;;;;;;;184.57;78.60;;;;;;;;;;5074281;28;20032;-64
2022/01/20 01:33:49;;;;;;;195.35;82.05;;;;;;;;;;5074203;28;20396;-63
2022/01/20 01:36:19;;;;;;;200.45;78.88;;;;;;;;;;5052329;28;20450;-63
2022/01/20 01:38:47;;;;;;;180.68;76.80;;;;;;;;;;5054096;28;20021;-64
2022/01/20 01:41:15;;;;;;;192.02;80.18;;;;;;;;;;5054003;28;20035;-64
2022/01/20 01:43:44;;;;;;;193.13;77.97;;;;;;;;;;5054012;28;20028;-64
2022/01/20 01:46:11;;;;;;;198.38;79.75;;;;;;;;;;5052603;28;20036;-63
2022/01/20 01:48:38;;;;;;;175.00;75.30;;;;;;;;;;5053931;28;20017;-64
2022/01/20 01:51:04;;;;;;;188.75;82.18;;;;;;;;;;5052521;28;20036;-64
2022/01/20 01:53:31;;;;;;;176.27;78.07;;;;;;;;;;5053861;28;20064;-63
2022/01/20 01:55:57;;;;;;;178.80;78.03;;;;;;;;;;5053704;28;20078;-64
2022/01/20 01:58:23;;;;;;;191.40;82.33;;;;;;;;;;5053736;28;20021;-64
2022/01/20 02:00:50;;;;;;;182.13;80.50;;;;;;;;;;5052003;28;20083;-64
2022/01/20 02:03:16;;;;;;;181.02;77.75;;;;;;;;;;5051734;28;20492;-64
2022/01/20 02:05:58;;;;;;;194.80;84.10;;;;;;;;;;5053278;28;20075;-64
2022/01/20 02:08:34;;;;;;;184.50;81.87;;;;;;;;;;5053585;28;20021;-64
2022/01/20 02:19:17;;;;;;;173.48;78.85;;;;;;;;;;5053107;28;20032;-64
2022/01/20 02:22:01;;;;;;;186.77;82.10;;;;;;;;;;5053264;28;20025;-64
2022/01/20 02:24:28;;;;;;;189.90;84.80;;;;;;;;;;5053297;28;20028;-64
2022/01/20 02:26:54;;;;;;;196.73;83.88;;;;;;;;;;5053212;28;20060;-63
2022/01/20 02:29:20;;;;;;;195.95;86.45;;;;;;;;;;5051830;28;20027;-63
2022/01/20 02:31:46;;;;;;;192.75;85.57;;;;;;;;;;5053140;28;20059;-63
2022/01/20 02:34:16;;;;;;;204.20;85.38;;;;;;;;;;5053400;28;20190;-63
2022/01/20 02:36:45;;;;;;;191.20;82.93;;;;;;;;;;5073173;28;20037;-63
2022/01/20 02:44:56;;;;;;;195.57;87.80;;;;;;;;;;5072820;28;20035;-62
2022/01/20 02:47:27;;;;;;;203.63;86.30;;;;;;;;;;5073057;28;20119;-63
2022/01/20 02:49:53;;;;;;;202.80;85.50;;;;;;;;;;5073070;28;20037;-63
2022/01/20 02:52:19;;;;;;;186.33;83.43;;;;;;;;;;5072940;28;20256;-63
2022/01/20 02:54:46;;;;;;;207.37;87.90;;;;;;;;;;5072968;28;20032;-64
2022/01/20 02:57:12;;;;;;;220.30;98.27;;;;;;;;;;5072865;28;20024;-64
2022/01/20 02:59:38;;;;;;;221.50;92.93;;;;;;;;;;5054885;28;20135;-64
2022/01/20 03:02:06;;;;;;;216.83;98.83;;;;;;;;;;5072825;28;20035;-64
2022/01/20 03:04:32;;;;;;;196.87;86.83;;;;;;;;;;5072814;28;20116;-64
2022/01/20 03:06:59;;;;;;;218.33;91.87;;;;;;;;;;5054756;28;20472;-65
2022/01/20 03:09:25;;;;;;;189.10;83.93;;;;;;;;;;5072770;28;20771;-64
2022/01/20 03:11:52;;;;;;;186.07;83.07;;;;;;;;;;5054826;28;20024;-63
2022/01/20 03:14:18;;;;;;;201.50;84.70;;;;;;;;;;5072776;28;20063;-63
2022/01/20 03:16:45;;;;;;;196.50;90.93;;;;;;;;;;5075476;28;20020;-64
2022/01/20 03:19:12;;;;;;;211.50;92.70;;;;;;;;;;5058762;28;20028;-63
2022/01/20 03:21:38;;;;;;;224.97;99.20;;;;;;;;;;5076699;28;20028;-64
2022/01/20 03:24:05;;;;;;;202.77;90.33;;;;;;;;;;5076605;28;20121;-63
2022/01/20 03:26:31;;;;;;;216.57;97.07;;;;;;;;;;5076646;28;20043;-63
2022/01/20 03:28:58;;;;;;;221.43;100.20;;;;;;;;;;5076542;28;20070;-63
2022/01/20 03:31:25;;;;;;;209.83;92.43;;;;;;;;;;5076177;28;20164;-63
2022/01/20 03:33:51;;;;;;;205.90;92.20;;;;;;;;;;5076417;28;20036;-64
2022/01/20 03:36:17;;;;;;;225.60;99.07;;;;;;;;;;5075929;28;20056;-64
2022/01/20 03:38:44;;;;;;;245.90;101.97;;;;;;;;;;5076338;28;20036;-63
2022/01/20 03:41:10;;;;;;;241.20;103.53;;;;;;;;;;5076274;28;20530;-64
2022/01/20 03:43:36;;;;;;;251.70;104.87;;;;;;;;;;5058174;28;20037;-63
2022/01/20 03:46:06;;;;;;;212.17;90.67;;;;;;;;;;5076254;28;20675;-64
2022/01/20 03:48:38;;;;;;;215.73;97.13;;;;;;;;;;5058128;28;20032;-64
2022/01/20 03:51:04;;;;;;;207.67;93.10;;;;;;;;;;5058112;28;20032;-64
2022/01/20 03:53:33;;;;;;;213.37;91.63;;;;;;;;;;5076062;28;20056;-65
2022/01/20 03:56:00;;;;;;;199.40;87.53;;;;;;;;;;5058118;28;20029;-64
2022/01/20 03:58:26;;;;;;;202.37;84.33;;;;;;;;;;5075934;28;20116;-63
2022/01/20 04:00:53;;;;;;;191.80;84.30;;;;;;;;;;5057886;28;20029;-63
2022/01/20 04:03:19;;;;;;;209.37;90.47;;;;;;;;;;5075776;28;20060;-65
2022/01/20 04:05:56;;;;;;;220.50;96.13;;;;;;;;;;5075830;28;20032;-65
2022/01/20 04:08:27;;;;;;;202.40;89.83;;;;;;;;;;5075834;28;20491;-64
2022/01/20 04:10:53;;;;;;;227.07;93.93;;;;;;;;;;5057763;28;20473;-64
2022/01/20 04:13:20;;;;;;;205.50;93.60;;;;;;;;;;5057679;28;20025;-66
2022/01/20 04:15:48;;;;;;;218.67;95.53;;;;;;;;;;5075705;28;20024;-65
2022/01/20 04:18:20;;;;;;;220.20;93.93;;;;;;;;;;5075635;28;20481;-66
2022/01/20 04:20:47;;;;;;;213.23;94.53;;;;;;;;;;5075599;28;20083;-66
2022/01/20 04:23:13;;;;;;;220.53;96.47;;;;;;;;;;5075427;28;20472;-65
2022/01/20 04:25:39;;;;;;;216.43;100.50;;;;;;;;;;5057597;28;20107;-65
2022/01/20 04:28:06;;;;;;;243.83;103.37;;;;;;;;;;5056933;28;20032;-66
2022/01/20 04:30:33;;;;;;;234.43;102.13;;;;;;;;;;5075128;28;20073;-66
2022/01/20 04:32:59;;;;;;;219.47;96.40;;;;;;;;;;5075287;28;20488;-65
2022/01/20 04:35:26;;;;;;;234.27;99.43;;;;;;;;;;5053629;28;20084;-66
2022/01/20 04:37:54;;;;;;;221.37;97.63;;;;;;;;;;5055233;28;20109;-64
2022/01/20 04:40:21;;;;;;;233.70;101.73;;;;;;;;;;5055219;28;20029;-66
2022/01/20 04:42:49;;;;;;;221.63;98.73;;;;;;;;;;5055071;28;20028;-66
2022/01/20 04:45:39;;;;;;;205.37;90.73;;;;;;;;;;5053838;28;20064;-65
2022/01/20 04:59:05;;;;;;;234.20;102.13;;;;;;;;;;5054923;28;20072;-64
2022/01/20 05:01:31;;;;;;;262.67;115.67;;;;;;;;;;5054812;28;20377;-66
2022/01/20 05:03:58;;;;;;;245.80;112.77;;;;;;;;;;5054679;28;20061;-65
2022/01/20 05:06:24;;;;;;;310.20;133.27;;;;;;;;;;5053460;28;20120;-66
2022/01/20 05:08:52;;;;;;;240.97;108.67;;;;;;;;;;5053363;28;20027;-65
2022/01/20 05:11:18;;;;;;;239.07;109.30;;;;;;;;;;5053313;28;20017;-64
2022/01/20 05:13:44;;;;;;;261.97;119.03;;;;;;;;;;5054343;28;20025;-64
2022/01/20 05:16:11;;;;;;;264.50;117.40;;;;;;;;;;5054573;28;20144;-64
2022/01/20 05:18:37;;;;;;;255.77;114.97;;;;;;;;;;5054509;28;20024;-64
2022/01/20 05:21:03;;;;;;;258.90;109.93;;;;;;;;;;5053059;28;20473;-65
2022/01/20 05:23:30;;;;;;;247.87;107.73;;;;;;;;;;5053995;28;20743;-65
2022/01/20 05:25:56;;;;;;;252.20;111.77;;;;;;;;;;5054403;28;20166;-64
2022/01/20 05:28:22;;;;;;;245.83;107.70;;;;;;;;;;5052945;28;20036;-63
2022/01/20 05:30:48;;;;;;;247.83;110.80;;;;;;;;;;5054254;28;20047;-63
2022/01/20 05:33:15;;;;;;;254.17;107.80;;;;;;;;;;5054176;28;20031;-63
2022/01/20 05:35:41;;;;;;;230.63;98.17;;;;;;;;;;5066632;28;20139;-63
2022/01/20 05:38:07;;;;;;;209.63;87.00;;;;;;;;;;5073228;28;20423;-63
2022/01/20 05:40:34;;;;;;;189.67;82.87;;;;;;;;;;5074001;28;20047;-64
2022/01/20 05:43:01;;;;;;;202.03;86.27;;;;;;;;;;5073870;28;20031;-63
2022/01/20 05:45:27;;;;;;;204.50;88.00;;;;;;;;;;5056072;28;20037;-64
2022/01/20 05:48:01;;;;;;;193.33;86.27;;;;;;;;;;5073555;28;20617;-63
2022/01/20 05:50:27;;;;;;;197.57;85.13;;;;;;;;;;5073806;28;20070;-64
2022/01/20 05:52:53;;;;;;;209.50;85.67;;;;;;;;;;5073519;28;20456;-64
2022/01/20 05:55:21;;;;;;;187.50;84.60;;;;;;;;;;5074035;28;20032;-63
2022/01/20 05:57:47;;;;;;;216.73;90.83;;;;;;;;;;5073700;28;20020;-64
2022/01/20 06:00:20;;;;;;;207.20;91.80;;;;;;;;;;5073637;28;20036;-63
2022/01/20 06:05:32;;;;;;;215.60;95.97;;;;;;;;;;5073290;28;20032;-64
2022/01/20 06:07:58;;;;;;;221.00;94.83;;;;;;;;;;5073773;28;20532;-63
2022/01/20 06:10:24;;;;;;;210.00;93.60;;;;;;;;;;5073497;28;20546;-63
2022/01/20 06:12:51;;;;;;;215.47;91.80;;;;;;;;;;5055483;28;20052;-63
2022/01/20 06:15:17;;;;;;;214.10;91.23;;;;;;;;;;5073387;28;20021;-64
2022/01/20 06:17:43;;;;;;;201.97;87.57;;;;;;;;;;5073355;28;20028;-64
2022/01/20 06:20:10;;;;;;;205.37;90.40;;;;;;;;;;5055387;28;20801;-64
2022/01/20 06:22:37;;;;;;;211.40;91.80;;;;;;;;;;5055260;28;20025;-64
2022/01/20 06:25:04;;;;;;;211.83;86.93;;;;;;;;;;5073179;28;20032;-64
2022/01/20 06:27:30;;;;;;;196.07;83.43;;;;;;;;;;5073277;28;20158;-64
2022/01/20 06:29:57;;;;;;;179.13;79.13;;;;;;;;;;5073151;28;20475;-64
2022/01/20 06:32:23;;;;;;;192.03;81.23;;;;;;;;;;5073129;28;20111;-64
2022/01/20 06:34:49;;;;;;;166.37;74.07;;;;;;;;;;5072816;28;20059;-64
2022/01/20 06:37:15;;;;;;;177.50;80.20;;;;;;;;;;5055098;28;20467;-63
2022/01/20 06:39:41;;;;;;;172.57;74.83;;;;;;;;;;5055349;28;20420;-63
2022/01/20 06:42:08;;;;;;;164.30;74.40;;;;;;;;;;5072944;28;20056;-64
2022/01/20 06:44:34;;;;;;;160.87;71.40;;;;;;;;;;5072915;28;20032;-63
2022/01/20 06:47:00;;;;;;;161.67;71.60;;;;;;;;;;5072838;28;20029;-63
2022/01/20 06:49:26;;;;;;;146.83;67.13;;;;;;;;;;5054551;28;20522;-62
2022/01/20 06:51:53;;;;;;;158.23;69.40;;;;;;;;;;5072862;28;20037;-63
2022/01/20 06:54:19;;;;;;;140.40;63.17;;;;;;;;;;5072873;28;20056;-64
2022/01/20 06:56:45;;;;;;;151.50;66.83;;;;;;;;;;5054851;28;20116;-62
2022/01/20 06:59:12;;;;;;;175.82;77.43;;;;;;;;;;5072771;28;20082;-62
2022/01/20 07:01:39;;;;;;;191.87;82.37;;;;;;;;;;5073178;28;20163;-63
2022/01/20 07:04:06;;;;;;;198.73;90.57;;;;;;;;;;5072757;28;20040;-63
2022/01/20 07:06:32;;;;;;;248.37;112.70;;;;;;;;;;5072888;28;20060;-62
2022/01/20 07:08:59;;;;;;;235.87;109.00;;;;;;;;;;5073039;28;20440;-62
2022/01/20 07:11:25;;;;;;;294.67;129.23;;;;;;;;;;5054669;28;20029;-62
2022/01/20 07:13:52;;;;;;;362.03;151.70;;;;;;;;;;5072431;28;20112;-62
2022/01/20 07:16:18;;;;;;;364.97;161.27;;;;;;;;;;5072494;28;20025;-62
2022/01/20 07:18:44;;;;;;;393.43;180.10;;;;;;;;;;5072966;28;20024;-62
2022/01/20 07:21:10;;;;;;;436.87;203.53;;;;;;;;;;5072688;28;20052;-62
2022/01/20 07:23:36;;;;;;;439.08;203.95;;;;;;;;;;5072088;28;20373;-65
2022/01/20 07:26:03;;;;;;;511.33;236.70;;;;;;;;;;5071754;28;20074;-65
2022/01/20 07:28:29;;;;;;;442.50;201.23;;;;;;;;;;5072068;28;20025;-67
2022/01/20 07:30:55;;;;;;;381.13;158.88;;;;;;;;;;5054447;28;20032;-65
2022/01/20 07:33:21;;;;;;;326.27;136.57;;;;;;;;;;5072291;28;20028;-65
2022/01/20 07:35:56;;;;;;;327.60;137.63;;;;;;;;;;5071959;28;20044;-64
2022/01/20 07:38:22;;;;;;;289.88;127.13;;;;;;;;;;5054412;28;20037;-63
2022/01/20 07:40:49;;;;;;;214.48;96.10;;;;;;;;;;5071995;28;20527;-65
2022/01/20 07:43:15;;;;;;;189.40;84.68;;;;;;;;;;5071946;28;20036;-67
2022/01/20 07:45:41;;;;;;;172.43;78.25;;;;;;;;;;5072536;28;20543;-64
2022/01/20 07:48:08;;;;;;;145.95;68.28;;;;;;;;;;5066044;28;20078;-65
2022/01/20 07:50:34;;;;;;;126.45;58.65;;;;;;;;;;5071831;28;20024;-65
2022/01/20 07:53:00;;;;;;;134.35;61.33;;;;;;;;;;5054200;28;20028;-66
2022/01/20 07:55:26;;;;;;;136.90;65.07;;;;;;;;;;5071964;28;20040;-66
2022/01/20 07:57:52;;;;;;;141.88;68.32;;;;;;;;;;5072172;28;20028;-65
2022/01/20 08:00:19;;;;;;;143.60;66.38;;;;;;;;;;5072109;28;20135;-66
2022/01/20 08:02:45;;;;;;;154.25;72.45;;;;;;;;;;5056615;28;20078;-67
2022/01/20 08:05:12;;;;;;;167.15;80.45;;;;;;;;;;5075609;28;20385;-70
2022/01/20 08:07:38;;;;;;;158.68;78.60;;;;;;;;;;5075526;28;20102;-67
2022/01/20 08:10:05;;;;;;;159.68;79.60;;;;;;;;;;5057873;28;20449;-64
2022/01/20 08:12:31;;;;;;;157.45;72.75;;;;;;;;;;5075659;28;20025;-64
2022/01/20 08:14:58;;;;;;;160.50;73.82;;;;;;;;;;5075440;28;20528;-65
2022/01/20 08:17:24;;;;;;;165.68;77.85;;;;;;;;;;5057569;28;20029;-64
2022/01/20 08:19:51;;;;;;;170.55;81.78;;;;;;;;;;5057447;28;20059;-64
2022/01/20 08:22:17;;;;;;;188.45;86.22;;;;;;;;;;5075061;28;20056;-65
2022/01/20 08:24:49;;;;;;;210.05;90.57;;;;;;;;;;5075077;28;20087;-65
2022/01/20 08:27:17;;;;;;;194.25;89.68;;;;;;;;;;5075401;28;20032;-66
2022/01/20 08:29:43;;;;;;;184.23;80.30;;;;;;;;;;5057322;28;20032;-67
2022/01/20 08:32:09;;;;;;;173.07;79.82;;;;;;;;;;5075150;28;20107;-64
2022/01/20 08:34:35;;;;;;;182.75;84.35;;;;;;;;;;5074701;28;20048;-67
2022/01/20 08:37:04;;;;;;;207.50;97.55;;;;;;;;;;5074716;28;20131;-64
2022/01/20 08:42:03;;;;;;;202.55;92.50;;;;;;;;;;5074868;28;20380;-66
2022/01/20 08:44:30;;;;;;;193.73;90.93;;;;;;;;;;5074951;28;20068;-67
2022/01/20 08:46:58;;;;;;;200.32;96.07;;;;;;;;;;5074620;28;20020;-64
2022/01/20 08:49:24;;;;;;;193.23;90.93;;;;;;;;;;5056776;28;20028;-66
2022/01/20 08:51:51;;;;;;;176.30;83.63;;;;;;;;;;5056764;28;20087;-68
2022/01/20 08:54:17;;;;;;;158.90;76.13;;;;;;;;;;5074837;28;20039;-65
2022/01/20 08:56:44;;;;;;;168.85;82.15;;;;;;;;;;5073928;28;20497;-69
2022/01/20 08:59:12;;;;;;;180.35;82.18;;;;;;;;;;5074556;28;20614;-64
2022/01/20 09:01:39;;;;;;;181.90;85.88;;;;;;;;;;5073323;28;20063;-63
2022/01/20 09:04:06;;;;;;;196.27;89.53;;;;;;;;;;5074519;28;20123;-66
2022/01/20 09:06:33;;;;;;;222.00;101.05;;;;;;;;;;5074636;28;20025;-64
2022/01/20 09:08:59;;;;;;;248.00;111.45;;;;;;;;;;5074738;28;20465;-65
2022/01/20 09:11:36;;;;;;;304.60;127.53;;;;;;;;;;5074424;28;20024;-64
2022/01/20 09:16:47;;;;;;;236.05;111.38;;;;;;;;;;5074470;28;20040;-65
2022/01/20 09:19:14;;;;;;;236.20;110.00;;;;;;;;;;5074710;28;20099;-63
2022/01/20 09:21:40;;;;;;;224.10;109.72;;;;;;;;;;5074232;28;20032;-65
2022/01/20 09:24:07;;;;;;;339.65;158.38;;;;;;;;;;5056058;28;20035;-65
2022/01/20 09:26:33;;;;;;;301.52;138.10;;;;;;;;;;5074140;28;20056;-67
2022/01/20 09:29:00;;;;;;;278.85;126.90;;;;;;;;;;5074213;28;20024;-64
2022/01/20 09:31:27;;;;;;;291.23;129.57;;;;;;;;;;5074376;28;20115;-64
2022/01/20 09:33:54;;;;;;;296.50;133.60;;;;;;;;;;5074010;28;20029;-66
2022/01/20 09:36:22;;;;;;;329.55;136.23;;;;;;;;;;5073720;28;20084;-65
2022/01/20 09:38:48;;;;;;;328.83;142.05;;;;;;;;;;5055911;28;20032;-64
2022/01/20 09:41:15;;;;;;;310.25;137.38;;;;;;;;;;5073919;28;20028;-65
2022/01/20 09:43:41;;;;;;;315.25;137.23;;;;;;;;;;5072674;28;20021;-66
2022/01/20 09:46:07;;;;;;;307.83;134.75;;;;;;;;;;5072271;28;20477;-65
2022/01/20 09:48:33;;;;;;;300.85;132.82;;;;;;;;;;5072401;28;20056;-65
2022/01/20 09:51:00;;;;;;;301.52;135.57;;;;;;;;;;5072813;28;20496;-65
2022/01/20 09:53:30;;;;;;;319.80;143.63;;;;;;;;;;5073628;28;20033;-66
2022/01/20 09:55:57;;;;;;;238.18;120.78;;;;;;;;;;5055399;28;20074;-66
2022/01/20 09:58:23;;;;;;;140.77;71.25;;;;;;;;;;5073424;28;20024;-66
2022/01/20 10:00:51;;;;;;;115.05;59.72;;;;;;;;;;5073761;28;20079;-65
2022/01/20 10:03:19;;;;;;;101.47;48.20;;;;;;;;;;5073698;28;20033;-65
2022/01/20 10:05:50;;;;;;;106.90;53.83;;;;;;;;;;5073461;28;20089;-65
2022/01/20 10:08:24;;;;;;;108.55;56.17;;;;;;;;;;5073329;28;20029;-65
2022/01/20 10:10:51;;;;;;;113.47;61.38;;;;;;;;;;5073437;28;20021;-66
2022/01/20 10:13:19;;;;;;;106.43;56.05;;;;;;;;;;5073308;28;20040;-65
2022/01/20 10:16:00;;;;;;;108.63;55.25;;;;;;;;;;5072815;28;20029;-64
2022/01/20 10:18:27;;;;;;;98.95;53.67;;;;;;;;;;5073242;28;20032;-65
2022/01/20 10:20:58;;;;;;;97.10;51.65;;;;;;;;;;5055116;28;20496;-65
2022/01/20 10:23:41;;;;;;;98.00;49.53;;;;;;;;;;5055115;28;20428;-66
2022/01/20 10:26:09;;;;;;;97.45;48.80;;;;;;;;;;5054718;28;20440;-63
2022/01/20 10:28:54;;;;;;;93.53;46.72;;;;;;;;;;5055160;28;20028;-65
2022/01/20 10:31:32;;;;;;;94.10;50.10;;;;;;;;;;5055092;28;20024;-63
2022/01/20 10:33:59;;;;;;;93.45;49.90;;;;;;;;;;5072985;28;20025;-63
2022/01/20 10:36:25;;;;;;;106.72;50.17;;;;;;;;;;5072768;28;20043;-66
2022/01/20 10:38:56;;;;;;;95.63;50.75;;;;;;;;;;5072958;28;20051;-68
2022/01/20 10:41:29;;;;;;;101.35;56.42;;;;;;;;;;5054811;28;20484;-65
2022/01/20 10:44:06;;;;;;;106.72;57.47;;;;;;;;;;5072826;28;20039;-64
2022/01/20 10:46:43;;;;;;;112.32;61.33;;;;;;;;;;5054877;28;20146;-65
2022/01/20 10:49:09;;;;;;;125.43;64.13;;;;;;;;;;5072923;28;20026;-65
2022/01/20 10:51:35;;;;;;;159.70;84.78;;;;;;;;;;5072490;28;20052;-68
2022/01/20 10:54:04;;;;;;;175.38;96.47;;;;;;;;;;5072780;28;20103;-66
2022/01/20 10:56:30;;;;;;;175.75;91.47;;;;;;;;;;5072330;28;20154;-65
2022/01/20 10:59:06;;;;;;;146.07;78.55;;;;;;;;;;5054628;28;20119;-65
2022/01/20 11:01:33;;;;;;;153.88;77.53;;;;;;;;;;5072699;28;20413;-67
2022/01/20 11:03:59;;;;;;;164.45;88.80;;;;;;;;;;5072806;28;20048;-65
2022/01/20 11:06:25;;;;;;;168.57;85.00;;;;;;;;;;5072797;28;20021;-65
2022/01/20 11:08:54;;;;;;;142.35;73.97;;;;;;;;;;5054652;28;20052;-65
2022/01/20 11:11:20;;;;;;;110.85;58.72;;;;;;;;;;5054315;28;20025;-70
2022/01/20 11:13:46;;;;;;;102.22;54.30;;;;;;;;;;5072620;28;20063;-68
2022/01/20 11:16:13;;;;;;;103.60;58.85;;;;;;;;;;5072378;28;20112;-65
2022/01/20 11:18:42;;;;;;;106.15;55.78;;;;;;;;;;5072427;28;20051;-65
2022/01/20 11:21:08;;;;;;;101.65;54.78;;;;;;;;;;5072506;28;20063;-65
2022/01/20 11:23:43;;;;;;;96.38;51.30;;;;;;;;;;5054467;28;20419;-66
2022/01/20 11:26:09;;;;;;;97.00;51.40;;;;;;;;;;5072467;28;20032;-65
2022/01/20 11:28:35;;;;;;;91.20;49.67;;;;;;;;;;5072536;28;20029;-64
2022/01/20 11:31:06;;;;;;;89.32;50.28;;;;;;;;;;5072374;28;20060;-66
2022/01/20 11:33:36;;;;;;;95.20;49.72;;;;;;;;;;5072423;28;20082;-66
2022/01/20 11:36:04;;;;;;;112.03;52.17;;;;;;;;;;5053900;28;20049;-63
2022/01/20 11:38:46;;;;;;;110.80;53.00;;;;;;;;;;5076018;28;20546;-65
2022/01/20 11:41:14;;;;;;;109.32;53.67;;;;;;;;;;5058393;28;20427;-65
2022/01/20 11:43:41;;;;;;;93.10;50.38;;;;;;;;;;5076129;28;20033;-66
2022/01/20 11:46:13;;;;;;;123.60;56.03;;;;;;;;;;5076111;28;20028;-66
2022/01/20 11:48:54;;;;;;;104.55;54.13;;;;;;;;;;5058106;28;20033;-66
2022/01/20 11:51:21;;;;;;;98.65;53.05;;;;;;;;;;5075663;28;20154;-66
2022/01/20 11:54:01;;;;;;;98.22;51.55;;;;;;;;;;5057144;28;20111;-65
2022/01/20 11:56:31;;;;;;;99.95;52.67;;;;;;;;;;5075978;28;20025;-64
2022/01/20 11:58:58;;;;;;;83.50;48.67;;;;;;;;;;5075993;28;20094;-65
2022/01/20 12:01:27;;;;;;;97.35;50.97;;;;;;;;;;5075784;28;20257;-64
2022/01/20 12:03:53;;;;;;;103.15;51.40;;;;;;;;;;5075696;28;20075;-65
2022/01/20 12:06:24;;;;;;;95.55;50.05;;;;;;;;;;5075460;28;20408;-68
2022/01/20 12:08:54;;;;;;;132.90;76.30;;;;;;;;;;5058133;28;20373;-65
2022/01/20 12:11:20;;;;;;;102.15;53.88;;;;;;;;;;5057698;28;20064;-67
2022/01/20 12:13:50;;;;;;;123.25;62.38;;;;;;;;;;5075585;28;20032;-67
2022/01/20 12:16:20;;;;;;;110.45;58.42;;;;;;;;;;5057313;28;20021;-67
2022/01/20 12:18:54;;;;;;;124.47;66.75;;;;;;;;;;5075661;28;20078;-64
2022/01/20 12:21:20;;;;;;;122.40;66.85;;;;;;;;;;5057618;28;20433;-67
2022/01/20 12:23:48;;;;;;;119.22;66.60;;;;;;;;;;5075420;28;20036;-67
2022/01/20 12:26:14;;;;;;;136.32;65.10;;;;;;;;;;5075690;28;20102;-64
2022/01/20 12:28:40;;;;;;;139.77;68.93;;;;;;;;;;5075282;28;20039;-65
2022/01/20 12:31:09;;;;;;;125.82;63.97;;;;;;;;;;5073575;28;20021;-66
2022/01/20 12:33:40;;;;;;;136.48;68.03;;;;;;;;;;5062686;28;20025;-62
2022/01/20 12:36:12;;;;;;;150.55;74.03;;;;;;;;;;5074183;28;20090;-62
2022/01/20 12:38:39;;;;;;;106.43;55.40;;;;;;;;;;5075116;28;20021;-62
2022/01/20 12:41:15;;;;;;;103.63;52.65;;;;;;;;;;5075110;28;20069;-64
2022/01/20 12:43:58;;;;;;;109.22;58.13;;;;;;;;;;5056652;28;20056;-64
2022/01/20 12:46:36;;;;;;;100.10;51.92;;;;;;;;;;5057055;28;20017;-64
2022/01/20 12:49:13;;;;;;;93.97;48.67;;;;;;;;;;5074530;28;20430;-63
2022/01/20 12:51:41;;;;;;;89.30;49.30;;;;;;;;;;5056765;28;20024;-64
2022/01/20 12:54:17;;;;;;;107.47;56.78;;;;;;;;;;5074728;28;20047;-62
2022/01/20 12:56:45;;;;;;;123.88;63.40;;;;;;;;;;5074776;28;20027;-63
2022/01/20 12:59:12;;;;;;;123.90;68.10;;;;;;;;;;5074399;28;20381;-62
2022/01/20 13:01:49;;;;;;;130.38;69.68;;;;;;;;;;5074760;28;20025;-65
2022/01/20 13:04:17;;;;;;;118.38;59.88;;;;;;;;;;5074307;28;20606;-63
2022/01/20 13:06:46;;;;;;;103.68;52.80;;;;;;;;;;5039930;28;20496;-63
2022/01/20 13:09:13;;;;;;;113.18;56.25;;;;;;;;;;5074414;28;20025;-63
2022/01/20 13:11:54;;;;;;;100.35;55.47;;;;;;;;;;5074055;28;20111;-63
2022/01/20 13:14:22;;;;;;;;;;;;;;;;;;5074982;28;20024;-64
2022/01/20 13:16:51;;;;;;;80.22;42.58;;;;;;;;;;5074335;28;19938;-63
2022/01/20 13:19:17;;;;;;;86.93;44.00;;;;;;;;;;5074376;28;20025;-66
2022/01/20 13:21:46;;;;;;;99.60;48.88;;;;;;;;;;5074231;28;20481;-64
2022/01/20 13:24:17;;;;;;;154.48;68.53;;;;;;;;;;5056136;28;20039;-68
2022/01/20 13:26:47;;;;;;;71.03;38.60;;;;;;;;;;5056651;28;20035;-68
2022/01/20 13:29:14;;;;;;;83.93;41.67;;;;;;;;;;5074281;28;20024;-66
2022/01/20 13:31:40;;;;;;;90.38;45.97;;;;;;;;;;5073448;28;20066;-66
2022/01/20 13:34:08;;;;;;;91.70;47.33;;;;;;;;;;5073431;28;20421;-65
2022/01/20 13:36:41;;;;;;;438.92;176.68;;;;;;;;;;5073830;28;20043;-68
2022/01/20 13:39:07;;;;;;;404.33;158.13;;;;;;;;;;5073993;28;20031;-66
2022/01/20 13:41:34;;;;;;;509.38;189.35;;;;;;;;;;5073836;28;20027;-65
2022/01/20 13:46:48;;;;;;;281.67;109.57;;;;;;;;;;5073384;28;20039;-67
2022/01/20 13:49:19;;;;;;;206.43;85.40;;;;;;;;;;5055781;28;20111;-67
2022/01/20 13:51:45;;;;;;;137.32;59.45;;;;;;;;;;5072904;28;20029;-67
2022/01/20 13:54:12;;;;;;;54.58;28.58;;;;;;;;;;5054475;28;20567;-67
2022/01/20 13:56:39;;;;;;;48.05;25.60;;;;;;;;;;5054119;28;20025;-68
2022/01/20 13:59:09;;;;;;;44.15;24.15;;;;;;;;;;5053578;28;20025;-68
2022/01/20 14:01:35;;;;;;;258.25;87.93;;;;;;;;;;5069642;28;20092;-68
2022/01/20 14:04:02;;;;;;;292.45;103.22;;;;;;;;;;5054005;28;20032;-67
2022/01/20 14:06:29;;;;;;;51.00;25.60;;;;;;;;;;5072101;28;20031;-68
2022/01/20 14:08:55;;;;;;;40.22;20.38;;;;;;;;;;5072035;28;20035;-67
2022/01/20 14:11:22;;;;;;;121.50;49.13;;;;;;;;;;5071924;28;20031;-67
2022/01/20 14:13:48;;;;;;;300.67;107.88;;;;;;;;;;5062298;28;20060;-68
2022/01/20 14:16:15;;;;;;;146.85;58.80;;;;;;;;;;5064651;28;20016;-68
2022/01/20 14:18:44;;;;;;;162.50;64.43;;;;;;;;;;5082239;28;20017;-68
2022/01/20 14:21:11;;;;;;;52.22;25.50;;;;;;;;;;5080949;28;20021;-68
2022/01/20 14:23:37;;;;;;;103.85;43.17;;;;;;;;;;5081992;28;20036;-67
2022/01/20 14:26:05;;;;;;;32.30;16.85;;;;;;;;;;5082523;28;20021;-69
2022/01/20 14:28:32;;;;;;;33.80;17.52;;;;;;;;;;5080225;28;20384;-68
2022/01/20 14:30:58;;;;;;;48.85;21.83;;;;;;;;;;5084697;28;20032;-69
2022/01/20 14:33:25;;;;;;;38.40;20.25;;;;;;;;;;5093144;28;20034;-67
2022/01/20 14:35:51;;;;;;;40.47;21.50;;;;;;;;;;5092845;28;20057;-69
2022/01/20 14:38:17;;;;;;;35.65;19.92;;;;;;;;;;5093195;28;20107;-69
2022/01/20 14:40:44;;;;;;;43.60;21.20;;;;;;;;;;5074855;28;20032;-69
2022/01/20 14:43:10;;;;;;;41.70;21.52;;;;;;;;;;5093223;28;20484;-68
2022/01/20 14:45:37;;;;;;;42.58;23.17;;;;;;;;;;5093151;28;20080;-68
2022/01/20 14:48:04;;;;;;;41.72;22.05;;;;;;;;;;5092655;28;20032;-65
2022/01/20 14:50:30;;;;;;;39.97;23.30;;;;;;;;;;5074903;28;20111;-67
2022/01/20 14:52:57;;;;;;;42.63;23.67;;;;;;;;;;5093161;28;20024;-67
2022/01/20 14:55:24;;;;;;;39.08;21.75;;;;;;;;;;5093029;28;20116;-64
2022/01/20 14:57:50;;;;;;;43.13;23.73;;;;;;;;;;5092957;28;20024;-65
2022/01/20 15:00:17;;;;;;;35.28;16.50;;;;;;;;;;5092828;28;20051;-66
2022/01/20 15:02:46;;;;;;;34.10;17.20;;;;;;;;;;5092683;28;20035;-68
2022/01/20 15:05:12;;;;;;;35.25;19.23;;;;;;;;;;5077378;28;20435;-65
2022/01/20 15:07:39;;;;;;;69.50;31.65;;;;;;;;;;5072163;28;20100;-64
2022/01/20 15:10:06;;;;;;;63.65;31.23;;;;;;;;;;5072755;28;20486;-64
2022/01/20 15:12:33;;;;;;;43.00;21.92;;;;;;;;;;5076634;28;20020;-65
2022/01/20 15:14:59;;;;;;;49.92;23.23;;;;;;;;;;5058733;28;20051;-66
2022/01/20 15:17:25;;;;;;;52.65;29.02;;;;;;;;;;5059127;28;20117;-66